Avery Island, Louisiana
Current Conditions -  °F | °C
As of 11:53 AM on Saturday 20 Dec 2014 (Local Time) from KARA Reporting Station
Overcast Overcast  
Wind Chill: 52°   Ceiling: 600
Heat Index: 52°   Visibility: 10mi
Dew Point: 49°   Wind: 12mph
Humidity: 89%   Direction: 30°NNE
Pressure: 30.16"   Gusts: NA
Location:  29.91°N, 91.91°W
Report Text: KARA 201753Z 03010KT 10SM OVC006 11/09 A3016 RMK AO2 SLP214 T01110094 10111 20100 58001
Loading
Personal Weather Stations






























Interactive Weather Map New forecast layout! Learn more

10-Day Weather Forecast

Advertisements
Track Severe Weather on mobile